sensor_id;sensor_type;location;lat;lon;timestamp;pressure;altitude;pressure_sealevel;temperature;humidity
69780;BME280;57052;55.602;38.096;2024-01-25T00:01:21;99270.19;;;2.84;73.45
69780;BME280;57052;55.602;38.096;2024-01-25T00:03:47;99262.91;;;2.79;72.69
69780;BME280;57052;55.602;38.096;2024-01-25T00:06:13;99264.28;;;2.82;72.71
69780;BME280;57052;55.602;38.096;2024-01-25T00:08:39;99270.75;;;2.86;73.06
69780;BME280;57052;55.602;38.096;2024-01-25T00:11:04;99268.41;;;2.89;73.48
69780;BME280;57052;55.602;38.096;2024-01-25T00:13:30;99263.63;;;2.91;73.06
69780;BME280;57052;55.602;38.096;2024-01-25T00:15:56;99265.81;;;2.94;72.34
69780;BME280;57052;55.602;38.096;2024-01-25T00:18:22;99256.97;;;2.94;73.13
69780;BME280;57052;55.602;38.096;2024-01-25T00:20:48;99258.06;;;2.93;73.15
69780;BME280;57052;55.602;38.096;2024-01-25T00:23:14;99256.41;;;2.92;73.16
69780;BME280;57052;55.602;38.096;2024-01-25T00:25:39;99259.66;;;2.94;73.02
69780;BME280;57052;55.602;38.096;2024-01-25T00:28:05;99246.28;;;2.94;72.71
69780;BME280;57052;55.602;38.096;2024-01-25T00:30:31;99221.19;;;2.78;73.01
69780;BME280;57052;55.602;38.096;2024-01-25T00:32:57;99240.94;;;2.94;72.61
69780;BME280;57052;55.602;38.096;2024-01-25T00:35:24;99227.34;;;2.95;72.59
69780;BME280;57052;55.602;38.096;2024-01-25T00:37:50;99236.75;;;2.98;72.47
69780;BME280;57052;55.602;38.096;2024-01-25T00:40:16;99233.25;;;2.97;72.38
69780;BME280;57052;55.602;38.096;2024-01-25T00:42:46;99206.59;;;2.86;72.27
69780;BME280;57052;55.602;38.096;2024-01-25T00:45:19;99225.81;;;2.99;72.87
69780;BME280;57052;55.602;38.096;2024-01-25T00:47:45;99217.97;;;2.93;72.12
69780;BME280;57052;55.602;38.096;2024-01-25T00:50:11;99214.22;;;2.94;72.10
69780;BME280;57052;55.602;38.096;2024-01-25T00:52:38;99229.59;;;3.03;72.78
69780;BME280;57052;55.602;38.096;2024-01-25T00:55:04;99216.06;;;2.93;72.66
69780;BME280;57052;55.602;38.096;2024-01-25T00:57:30;99227.66;;;2.99;72.04
69780;BME280;57052;55.602;38.096;2024-01-25T00:59:56;99220.88;;;2.91;72.31
69780;BME280;57052;55.602;38.096;2024-01-25T01:02:22;99220.13;;;2.96;72.17
69780;BME280;57052;55.602;38.096;2024-01-25T01:04:48;99222.00;;;2.95;72.49
69780;BME280;57052;55.602;38.096;2024-01-25T01:07:15;99216.41;;;2.97;72.66
69780;BME280;57052;55.602;38.096;2024-01-25T01:09:41;99207.91;;;3.00;71.96
69780;BME280;57052;55.602;38.096;2024-01-25T01:12:06;99198.50;;;2.97;72.80
69780;BME280;57052;55.602;38.096;2024-01-25T01:14:33;99208.47;;;3.02;72.04
69780;BME280;57052;55.602;38.096;2024-01-25T01:16:58;99202.84;;;3.03;72.36
69780;BME280;57052;55.602;38.096;2024-01-25T01:19:24;99200.78;;;3.05;72.30
69780;BME280;57052;55.602;38.096;2024-01-25T01:21:50;99194.22;;;2.96;72.17
69780;BME280;57052;55.602;38.096;2024-01-25T01:24:16;99185.63;;;2.94;71.94
69780;BME280;57052;55.602;38.096;2024-01-25T01:26:41;99182.97;;;2.94;71.77
69780;BME280;57052;55.602;38.096;2024-01-25T01:29:07;99187.56;;;2.99;72.35
69780;BME280;57052;55.602;38.096;2024-01-25T01:31:34;99188.13;;;3.01;72.27
69780;BME280;57052;55.602;38.096;2024-01-25T01:33:59;99180.34;;;2.99;71.90
69780;BME280;57052;55.602;38.096;2024-01-25T01:36:26;99170.34;;;2.90;71.87
69780;BME280;57052;55.602;38.096;2024-01-25T01:38:52;99161.75;;;2.88;71.97
69780;BME280;57052;55.602;38.096;2024-01-25T01:41:17;99158.03;;;2.89;71.63
69780;BME280;57052;55.602;38.096;2024-01-25T01:43:43;99148.41;;;2.88;72.32
69780;BME280;57052;55.602;38.096;2024-01-25T01:48:56;99154.13;;;2.96;72.53
69780;BME280;57052;55.602;38.096;2024-01-25T01:51:22;99151.78;;;3.00;71.86
69780;BME280;57052;55.602;38.096;2024-01-25T01:53:47;99153.00;;;2.92;72.12
69780;BME280;57052;55.602;38.096;2024-01-25T01:56:14;99145.34;;;3.01;72.16
69780;BME280;57052;55.602;38.096;2024-01-25T01:58:41;99143.19;;;2.98;72.30
69780;BME280;57052;55.602;38.096;2024-01-25T02:01:07;99148.63;;;3.03;71.76
69780;BME280;57052;55.602;38.096;2024-01-25T02:03:33;99138.41;;;3.00;71.98
69780;BME280;57052;55.602;38.096;2024-01-25T02:06:00;99148.63;;;3.03;71.55
69780;BME280;57052;55.602;38.096;2024-01-25T02:08:29;99124.41;;;2.93;71.51
69780;BME280;57052;55.602;38.096;2024-01-25T02:10:55;99141.91;;;3.00;71.46
69780;BME280;57052;55.602;38.096;2024-01-25T02:13:21;99151.50;;;3.01;71.32
69780;BME280;57052;55.602;38.096;2024-01-25T02:15:47;99139.38;;;2.94;72.23
69780;BME280;57052;55.602;38.096;2024-01-25T02:18:13;99145.88;;;2.98;71.37
69780;BME280;57052;55.602;38.096;2024-01-25T02:20:40;99161.16;;;3.02;72.45
69780;BME280;57052;55.602;38.096;2024-01-25T02:23:06;99147.78;;;3.02;72.45
69780;BME280;57052;55.602;38.096;2024-01-25T02:25:32;99158.22;;;3.04;71.84
69780;BME280;57052;55.602;38.096;2024-01-25T02:27:58;99150.22;;;3.04;71.56
69780;BME280;57052;55.602;38.096;2024-01-25T02:30:24;99158.78;;;3.06;71.74
69780;BME280;57052;55.602;38.096;2024-01-25T02:32:49;99152.66;;;3.05;72.07
69780;BME280;57052;55.602;38.096;2024-01-25T02:35:15;99159.88;;;3.05;72.23
69780;BME280;57052;55.602;38.096;2024-01-25T02:37:41;99155.56;;;3.04;72.26
69780;BME280;57052;55.602;38.096;2024-01-25T02:40:07;99155.00;;;3.02;72.01
69780;BME280;57052;55.602;38.096;2024-01-25T02:42:33;99149.91;;;3.00;71.51
69780;BME280;57052;55.602;38.096;2024-01-25T02:44:59;99150.69;;;3.01;71.48
69780;BME280;57052;55.602;38.096;2024-01-25T02:47:24;99134.03;;;2.94;72.05
69780;BME280;57052;55.602;38.096;2024-01-25T02:49:50;99146.97;;;3.02;71.46
69780;BME280;57052;55.602;38.096;2024-01-25T02:52:16;99125.72;;;2.90;71.69
69780;BME280;57052;55.602;38.096;2024-01-25T02:54:41;99145.88;;;2.98;71.34
69780;BME280;57052;55.602;38.096;2024-01-25T02:57:07;99149.31;;;2.98;72.30
69780;BME280;57052;55.602;38.096;2024-01-25T02:59:33;99154.44;;;3.00;71.96
69780;BME280;57052;55.602;38.096;2024-01-25T03:01:59;99148.03;;;3.01;71.86
69780;BME280;57052;55.602;38.096;2024-01-25T03:04:24;99147.47;;;2.99;72.47
69780;BME280;57052;55.602;38.096;2024-01-25T03:06:50;99100.03;;;2.68;71.42
69780;BME280;57052;55.602;38.096;2024-01-25T03:09:16;99144.16;;;2.92;72.05
69780;BME280;57052;55.602;38.096;2024-01-25T03:11:42;99140.13;;;2.89;71.83
69780;BME280;57052;55.602;38.096;2024-01-25T03:14:07;99141.75;;;2.90;72.29
69780;BME280;57052;55.602;38.096;2024-01-25T03:16:33;99139.88;;;2.91;72.04
69780;BME280;57052;55.602;38.096;2024-01-25T03:18:59;99114.31;;;2.78;72.23
69780;BME280;57052;55.602;38.096;2024-01-25T03:21:25;99136.41;;;2.90;72.29
69780;BME280;57052;55.602;38.096;2024-01-25T03:23:50;99128.13;;;2.92;72.19
69780;BME280;57052;55.602;38.096;2024-01-25T03:26:16;99129.19;;;2.91;72.62
69780;BME280;57052;55.602;38.096;2024-01-25T03:28:42;99121.16;;;2.91;72.58
69780;BME280;57052;55.602;38.096;2024-01-25T03:31:08;99102.31;;;2.81;72.74
69780;BME280;57052;55.602;38.096;2024-01-25T03:33:33;99115.75;;;2.86;72.82
69780;BME280;57052;55.602;38.096;2024-01-25T03:36:03;99108.81;;;2.85;71.94
69780;BME280;57052;55.602;38.096;2024-01-25T03:38:29;99106.06;;;2.80;72.14
69780;BME280;57052;55.602;38.096;2024-01-25T03:40:55;99118.41;;;2.86;72.81
69780;BME280;57052;55.602;38.096;2024-01-25T03:43:27;99110.59;;;2.79;72.68
69780;BME280;57052;55.602;38.096;2024-01-25T03:45:53;99118.13;;;2.82;71.99
69780;BME280;57052;55.602;38.096;2024-01-25T03:48:19;99111.41;;;2.80;71.97
69780;BME280;57052;55.602;38.096;2024-01-25T03:50:45;99105.81;;;2.81;72.96
69780;BME280;57052;55.602;38.096;2024-01-25T03:53:11;99094.06;;;2.82;71.96
69780;BME280;57052;55.602;38.096;2024-01-25T03:55:37;99101.28;;;2.82;72.09
69780;BME280;57052;55.602;38.096;2024-01-25T03:58:02;99098.59;;;2.82;72.10
69780;BME280;57052;55.602;38.096;2024-01-25T04:00:28;99098.84;;;2.80;72.83
69780;BME280;57052;55.602;38.096;2024-01-25T04:02:54;99095.38;;;2.80;72.00
69780;BME280;57052;55.602;38.096;2024-01-25T04:05:20;99088.94;;;2.81;72.52
69780;BME280;57052;55.602;38.096;2024-01-25T04:07:46;99096.97;;;2.81;72.94
69780;BME280;57052;55.602;38.096;2024-01-25T04:10:11;99095.38;;;2.80;72.83
69780;BME280;57052;55.602;38.096;2024-01-25T04:12:37;99067.97;;;2.68;72.54
69780;BME280;57052;55.602;38.096;2024-01-25T04:15:03;99084.28;;;2.71;72.29
69780;BME280;57052;55.602;38.096;2024-01-25T04:17:30;99078.38;;;2.69;72.94
69780;BME280;57052;55.602;38.096;2024-01-25T04:19:56;99076.28;;;2.71;72.46
69780;BME280;57052;55.602;38.096;2024-01-25T04:22:22;99076.28;;;2.71;72.85
69780;BME280;57052;55.602;38.096;2024-01-25T04:24:47;99070.13;;;2.71;71.89
69780;BME280;57052;55.602;38.096;2024-01-25T04:27:15;99041.53;;;2.49;72.58
69780;BME280;57052;55.602;38.096;2024-01-25T04:29:41;99071.13;;;2.65;72.54
69780;BME280;57052;55.602;38.096;2024-01-25T04:32:09;99071.13;;;2.65;71.85
69780;BME280;57052;55.602;38.096;2024-01-25T04:34:36;99059.63;;;2.64;71.75
69780;BME280;57052;55.602;38.096;2024-01-25T04:37:02;99056.63;;;2.60;72.56
69780;BME280;57052;55.602;38.096;2024-01-25T04:39:27;99063.91;;;2.65;71.97
69780;BME280;57052;55.602;38.096;2024-01-25T04:41:53;99068.44;;;2.65;72.48
69780;BME280;57052;55.602;38.096;2024-01-25T04:44:19;99059.53;;;2.59;72.41
69780;BME280;57052;55.602;38.096;2024-01-25T04:46:44;99065.44;;;2.61;72.31
69780;BME280;57052;55.602;38.096;2024-01-25T04:49:10;99071.78;;;2.55;72.03
69780;BME280;57052;55.602;38.096;2024-01-25T04:51:36;99040.41;;;2.45;72.45
69780;BME280;57052;55.602;38.096;2024-01-25T04:54:02;99053.66;;;2.57;72.53
69780;BME280;57052;55.602;38.096;2024-01-25T04:56:28;99059.00;;;2.57;72.18
69780;BME280;57052;55.602;38.096;2024-01-25T04:58:54;99062.47;;;2.57;71.77
69780;BME280;57052;55.602;38.096;2024-01-25T05:01:20;99065.97;;;2.58;71.89
69780;BME280;57052;55.602;38.096;2024-01-25T05:03:45;99060.63;;;2.58;71.99
69780;BME280;57052;55.602;38.096;2024-01-25T05:06:11;99039.91;;;2.48;72.03
69780;BME280;57052;55.602;38.096;2024-01-25T05:08:38;99057.94;;;2.58;72.54
69780;BME280;57052;55.602;38.096;2024-01-25T05:11:04;99068.84;;;2.56;71.97
69780;BME280;57052;55.602;38.096;2024-01-25T05:13:30;99061.91;;;2.55;71.53
69780;BME280;57052;55.602;38.096;2024-01-25T05:15:55;99067.25;;;2.55;71.61
69780;BME280;57052;55.602;38.096;2024-01-25T05:18:21;99072.28;;;2.52;71.90
69780;BME280;57052;55.602;38.096;2024-01-25T05:20:47;99073.09;;;2.52;71.69
69780;BME280;57052;55.602;38.096;2024-01-25T05:23:12;99075.44;;;2.49;71.61
69780;BME280;57052;55.602;38.096;2024-01-25T05:25:38;99079.41;;;2.46;72.42
69780;BME280;57052;55.602;38.096;2024-01-25T05:28:04;99079.41;;;2.46;72.59
69780;BME280;57052;55.602;38.096;2024-01-25T05:30:30;99082.00;;;2.41;72.36
69780;BME280;57052;55.602;38.096;2024-01-25T05:32:56;99082.47;;;2.38;71.85
69780;BME280;57052;55.602;38.096;2024-01-25T05:35:22;99070.94;;;2.16;72.63
69780;BME280;57052;55.602;38.096;2024-01-25T05:37:49;99079.75;;;2.17;72.91
69780;BME280;57052;55.602;38.096;2024-01-25T05:40:15;99089.13;;;2.19;72.81
69780;BME280;57052;55.602;38.096;2024-01-25T05:42:40;99089.13;;;2.19;72.27
69780;BME280;57052;55.602;38.096;2024-01-25T05:45:07;99094.56;;;2.24;72.87
69780;BME280;57052;55.602;38.096;2024-01-25T05:47:34;99088.66;;;2.22;72.61
69780;BME280;57052;55.602;38.096;2024-01-25T05:50:00;99082.50;;;2.22;72.93
69780;BME280;57052;55.602;38.096;2024-01-25T05:52:26;99087.59;;;2.23;73.13
69780;BME280;57052;55.602;38.096;2024-01-25T05:54:52;99084.53;;;2.15;72.81
69780;BME280;57052;55.602;38.096;2024-01-25T05:57:18;99084.28;;;2.16;72.80
69780;BME280;57052;55.602;38.096;2024-01-25T05:59:44;99074.06;;;2.13;72.92
69780;BME280;57052;55.602;38.096;2024-01-25T06:02:10;99083.78;;;2.19;72.93
69780;BME280;57052;55.602;38.096;2024-01-25T06:04:36;99065.75;;;2.10;72.32
69780;BME280;57052;55.602;38.096;2024-01-25T06:07:03;99079.84;;;2.22;72.20
69780;BME280;57052;55.602;38.096;2024-01-25T06:09:29;99073.94;;;2.20;72.88
69780;BME280;57052;55.602;38.096;2024-01-25T06:11:54;99073.03;;;2.14;72.24
69780;BME280;57052;55.602;38.096;2024-01-25T06:14:20;99074.06;;;2.13;72.43
69780;BME280;57052;55.602;38.096;2024-01-25T06:16:46;99073.38;;;2.18;72.20
69780;BME280;57052;55.602;38.096;2024-01-25T06:19:12;99069.88;;;2.17;72.20
69780;BME280;57052;55.602;38.096;2024-01-25T06:21:38;99070.78;;;2.23;72.87
69780;BME280;57052;55.602;38.096;2024-01-25T06:24:06;99029.53;;;1.97;71.75
69780;BME280;57052;55.602;38.096;2024-01-25T06:26:33;99064.69;;;2.27;72.71
69780;BME280;57052;55.602;38.096;2024-01-25T06:28:58;99070.59;;;2.29;72.44
69780;BME280;57052;55.602;38.096;2024-01-25T06:31:25;99067.94;;;2.29;72.41
69780;BME280;57052;55.602;38.096;2024-01-25T06:33:51;99069.31;;;2.32;72.28
69780;BME280;57052;55.602;38.096;2024-01-25T06:36:19;99064.69;;;2.27;71.43
69780;BME280;57052;55.602;38.096;2024-01-25T06:38:45;99058.47;;;2.22;71.70
69780;BME280;57052;55.602;38.096;2024-01-25T06:41:11;99071.97;;;2.32;71.58
69780;BME280;57052;55.602;38.096;2024-01-25T06:43:36;99051.28;;;2.22;72.26
69780;BME280;57052;55.602;38.096;2024-01-25T06:46:02;99068.28;;;2.33;71.66
69780;BME280;57052;55.602;38.096;2024-01-25T06:48:28;99068.75;;;2.30;71.50
69780;BME280;57052;55.602;38.096;2024-01-25T06:50:54;99074.72;;;2.37;71.14
69780;BME280;57052;55.602;38.096;2024-01-25T06:53:20;99072.59;;;2.39;70.80
69780;BME280;57052;55.602;38.096;2024-01-25T06:55:47;99075.84;;;2.41;71.21
69780;BME280;57052;55.602;38.096;2024-01-25T06:58:12;99072.13;;;2.42;71.51
69780;BME280;57052;55.602;38.096;2024-01-25T07:00:39;99071.09;;;2.43;70.99
69780;BME280;57052;55.602;38.096;2024-01-25T07:03:07;99058.22;;;2.40;70.92
69780;BME280;57052;55.602;38.096;2024-01-25T07:05:33;99055.00;;;2.38;70.32
69780;BME280;57052;55.602;38.096;2024-01-25T07:08:01;99074.53;;;2.43;70.57
69780;BME280;57052;55.602;38.096;2024-01-25T07:10:27;99080.47;;;2.45;70.28
69780;BME280;57052;55.602;38.096;2024-01-25T07:12:53;99070.50;;;2.41;70.47
69780;BME280;57052;55.602;38.096;2024-01-25T07:15:20;99076.34;;;2.38;70.86
69780;BME280;57052;55.602;38.096;2024-01-25T07:17:45;99078.50;;;2.41;70.31
69780;BME280;57052;55.602;38.096;2024-01-25T07:20:12;99073.44;;;2.39;70.44
69780;BME280;57052;55.602;38.096;2024-01-25T07:22:39;99077.72;;;2.40;70.64
69780;BME280;57052;55.602;38.096;2024-01-25T07:25:05;99080.25;;;2.30;70.12
69780;BME280;57052;55.602;38.096;2024-01-25T07:27:31;99091.41;;;2.27;69.87
69780;BME280;57052;55.602;38.096;2024-01-25T07:29:56;99096.19;;;2.25;70.24
69780;BME280;57052;55.602;38.096;2024-01-25T07:32:22;99082.75;;;2.20;69.65
69780;BME280;57052;55.602;38.096;2024-01-25T07:34:50;99068.75;;;2.13;70.15
69780;BME280;57052;55.602;38.096;2024-01-25T07:37:16;99075.97;;;2.13;70.52
69780;BME280;57052;55.602;38.096;2024-01-25T07:39:44;99062.28;;;2.09;70.10
69780;BME280;57052;55.602;38.096;2024-01-25T07:42:10;99087.84;;;2.22;70.00
69780;BME280;57052;55.602;38.096;2024-01-25T07:44:38;99085.72;;;2.24;69.71
69780;BME280;57052;55.602;38.096;2024-01-25T07:47:03;99080.72;;;2.27;69.71
69780;BME280;57052;55.602;38.096;2024-01-25T07:49:29;99063.34;;;2.25;69.69
69780;BME280;57052;55.602;38.096;2024-01-25T07:51:55;99067.13;;;2.29;69.92
69780;BME280;57052;55.602;38.096;2024-01-25T07:54:24;99072.31;;;2.35;69.37
69780;BME280;57052;55.602;38.096;2024-01-25T07:56:49;99087.25;;;2.36;69.30
69780;BME280;57052;55.602;38.096;2024-01-25T07:59:15;99069.47;;;2.25;69.45
69780;BME280;57052;55.602;38.096;2024-01-25T08:01:41;99079.16;;;2.31;69.31
69780;BME280;57052;55.602;38.096;2024-01-25T08:04:07;99086.53;;;2.41;69.41
69780;BME280;57052;55.602;38.096;2024-01-25T08:06:33;99088.97;;;2.42;69.90
69780;BME280;57052;55.602;38.096;2024-01-25T08:08:59;99085.81;;;2.45;69.91
69780;BME280;57052;55.602;38.096;2024-01-25T08:11:24;99075.13;;;2.45;68.84
69780;BME280;57052;55.602;38.096;2024-01-25T08:13:51;99079.59;;;2.40;69.36
69780;BME280;57052;55.602;38.096;2024-01-25T08:16:17;99077.94;;;2.39;69.17
69780;BME280;57052;55.602;38.096;2024-01-25T08:18:47;99075.06;;;2.40;68.88
69780;BME280;57052;55.602;38.096;2024-01-25T08:21:13;99084.75;;;2.46;69.43
69780;BME280;57052;55.602;38.096;2024-01-25T08:23:39;99072.59;;;2.39;69.56
69780;BME280;57052;55.602;38.096;2024-01-25T08:26:05;99074.69;;;2.53;69.28
69780;BME280;57052;55.602;38.096;2024-01-25T08:28:35;99069.69;;;2.57;68.91
69780;BME280;57052;55.602;38.096;2024-01-25T08:31:01;99029.50;;;2.30;68.92
69780;BME280;57052;55.602;38.096;2024-01-25T08:33:27;99072.09;;;2.58;69.12
69780;BME280;57052;55.602;38.096;2024-01-25T08:35:53;99062.34;;;2.47;68.99
69780;BME280;57052;55.602;38.096;2024-01-25T08:38:19;99074.47;;;2.55;68.84
69780;BME280;57052;55.602;38.096;2024-01-25T08:40:45;99064.75;;;2.49;68.33
69780;BME280;57052;55.602;38.096;2024-01-25T08:43:10;99075.84;;;2.57;68.26
69780;BME280;57052;55.602;38.096;2024-01-25T08:45:36;99059.53;;;2.59;68.77
69780;BME280;57052;55.602;38.096;2024-01-25T08:48:04;99070.31;;;2.64;69.07
69780;BME280;57052;55.602;38.096;2024-01-25T08:50:30;99045.38;;;2.58;68.39
69780;BME280;57052;55.602;38.096;2024-01-25T08:52:55;99065.69;;;2.59;68.37
69780;BME280;57052;55.602;38.096;2024-01-25T08:55:21;99065.78;;;2.65;68.57
69780;BME280;57052;55.602;38.096;2024-01-25T08:57:49;99067.16;;;2.67;68.23
69780;BME280;57052;55.602;38.096;2024-01-25T09:00:16;99066.88;;;2.69;68.23
69780;BME280;57052;55.602;38.096;2024-01-25T09:02:42;99001.44;;;2.28;68.42
69780;BME280;57052;55.602;38.096;2024-01-25T09:05:08;99064.78;;;2.71;68.04
69780;BME280;57052;55.602;38.096;2024-01-25T09:07:34;99067.69;;;2.69;68.42
69780;BME280;57052;55.602;38.096;2024-01-25T09:10:00;99066.66;;;2.70;68.11
69780;BME280;57052;55.602;38.096;2024-01-25T09:12:26;99057.75;;;2.65;67.98
69780;BME280;57052;55.602;38.096;2024-01-25T09:14:51;99075.47;;;2.71;68.39
69780;BME280;57052;55.602;38.096;2024-01-25T09:17:17;99070.13;;;2.71;67.71
69780;BME280;57052;55.602;38.096;2024-01-25T09:19:48;99059.44;;;2.71;67.34
69780;BME280;57052;55.602;38.096;2024-01-25T09:22:15;99065.59;;;2.71;67.26
69780;BME280;57052;55.602;38.096;2024-01-25T09:24:43;99049.25;;;2.68;67.77
69780;BME280;57052;55.602;38.096;2024-01-25T09:27:09;99064.28;;;2.74;68.22
69780;BME280;57052;55.602;38.096;2024-01-25T09:29:35;99041.97;;;2.63;68.30
69780;BME280;57052;55.602;38.096;2024-01-25T09:32:04;99061.69;;;2.79;67.97
69780;BME280;57052;55.602;38.096;2024-01-25T09:34:30;99063.47;;;2.73;67.93
69780;BME280;57052;55.602;38.096;2024-01-25T09:36:56;99057.41;;;2.78;67.05
69780;BME280;57052;55.602;38.096;2024-01-25T09:39:22;99075.09;;;2.84;67.10
69780;BME280;57052;55.602;38.096;2024-01-25T09:41:47;99066.22;;;2.78;67.89
69780;BME280;57052;55.602;38.096;2024-01-25T09:44:13;99075.84;;;2.79;67.63
69780;BME280;57052;55.602;38.096;2024-01-25T09:46:39;99068.66;;;2.80;67.85
69780;BME280;57052;55.602;38.096;2024-01-25T09:49:07;99060.06;;;2.78;67.15
69780;BME280;57052;55.602;38.096;2024-01-25T09:51:38;99054.53;;;2.84;67.11
69780;BME280;57052;55.602;38.096;2024-01-25T09:54:05;99048.22;;;2.90;67.93
69780;BME280;57052;55.602;38.096;2024-01-25T09:56:34;99053.63;;;2.95;67.50
69780;BME280;57052;55.602;38.096;2024-01-25T09:59:01;99054.19;;;2.97;66.81
69780;BME280;57052;55.602;38.096;2024-01-25T10:01:28;99046.44;;;3.01;67.00
69780;BME280;57052;55.602;38.096;2024-01-25T10:03:54;99044.34;;;3.03;67.48
69780;BME280;57052;55.602;38.096;2024-01-25T10:06:23;99044.34;;;3.03;67.20
69780;BME280;57052;55.602;38.096;2024-01-25T10:08:49;99045.72;;;3.05;66.99
69780;BME280;57052;55.602;38.096;2024-01-25T10:11:16;99038.50;;;3.06;67.33
69780;BME280;57052;55.602;38.096;2024-01-25T10:13:42;99040.13;;;3.07;66.45
69780;BME280;57052;55.602;38.096;2024-01-25T10:16:14;99037.78;;;3.10;66.86
69780;BME280;57052;55.602;38.096;2024-01-25T10:18:42;99036.47;;;3.13;67.07
69780;BME280;57052;55.602;38.096;2024-01-25T10:21:11;99036.19;;;3.14;66.77
69780;BME280;57052;55.602;38.096;2024-01-25T10:23:38;99039.69;;;3.15;67.24
69780;BME280;57052;55.602;38.096;2024-01-25T10:26:04;99041.81;;;3.13;67.15
69780;BME280;57052;55.602;38.096;2024-01-25T10:28:30;99030.72;;;3.04;66.46
69780;BME280;57052;55.602;38.096;2024-01-25T10:30:59;99034.50;;;3.08;67.06
69780;BME280;57052;55.602;38.096;2024-01-25T10:33:25;99039.56;;;3.05;66.70
69780;BME280;57052;55.602;38.096;2024-01-25T10:35:54;99041.75;;;3.08;67.05
69780;BME280;57052;55.602;38.096;2024-01-25T10:38:21;99040.13;;;3.07;66.34
69780;BME280;57052;55.602;38.096;2024-01-25T10:40:47;99036.94;;;3.10;66.78
69780;BME280;57052;55.602;38.096;2024-01-25T10:43:13;99035.66;;;3.12;66.56
69780;BME280;57052;55.602;38.096;2024-01-25T10:45:39;99028.06;;;3.04;66.66
69780;BME280;57052;55.602;38.096;2024-01-25T10:48:07;98996.63;;;2.90;66.92
69780;BME280;57052;55.602;38.096;2024-01-25T10:53:17;99038.94;;;3.19;66.49
69780;BME280;57052;55.602;38.096;2024-01-25T10:55:44;99043.22;;;3.20;67.24
69780;BME280;57052;55.602;38.096;2024-01-25T10:58:13;99029.22;;;3.13;67.19
69780;BME280;57052;55.602;38.096;2024-01-25T11:00:39;99036.25;;;3.19;66.68
69780;BME280;57052;55.602;38.096;2024-01-25T11:03:06;99048.56;;;3.20;67.35
69780;BME280;57052;55.602;38.096;2024-01-25T11:05:32;99034.88;;;3.17;66.54
69780;BME280;57052;55.602;38.096;2024-01-25T11:07:58;99040.78;;;3.19;66.40
69780;BME280;57052;55.602;38.096;2024-01-25T11:10:25;99043.72;;;3.17;67.09
69780;BME280;57052;55.602;38.096;2024-01-25T11:12:58;99038.88;;;3.14;66.94
69780;BME280;57052;55.602;38.096;2024-01-25T11:15:32;99001.09;;;2.84;67.25
69780;BME280;57052;55.602;38.096;2024-01-25T11:18:00;99041.22;;;3.11;66.68
69780;BME280;57052;55.602;38.096;2024-01-25T11:20:28;99022.91;;;2.98;66.94
69780;BME280;57052;55.602;38.096;2024-01-25T11:23:06;99041.97;;;3.06;66.67
69780;BME280;57052;55.602;38.096;2024-01-25T11:25:35;99024.22;;;2.95;67.30
69780;BME280;57052;55.602;38.096;2024-01-25T11:28:03;99044.91;;;3.05;67.04
69780;BME280;57052;55.602;38.096;2024-01-25T11:30:32;99006.94;;;2.81;67.11
69780;BME280;57052;55.602;38.096;2024-01-25T11:32:59;99045.41;;;3.02;66.57
69780;BME280;57052;55.602;38.096;2024-01-25T11:35:25;99045.66;;;3.00;67.36
69780;BME280;57052;55.602;38.096;2024-01-25T11:37:52;99047.53;;;3.00;67.12
69780;BME280;57052;55.602;38.096;2024-01-25T11:40:19;99045.91;;;2.99;66.37
69780;BME280;57052;55.602;38.096;2024-01-25T11:42:48;99040.81;;;2.97;67.36
69780;BME280;57052;55.602;38.096;2024-01-25T11:45:14;99038.91;;;2.93;66.49
69780;BME280;57052;55.602;38.096;2024-01-25T11:47:41;99038.31;;;2.91;67.21
69780;BME280;57052;55.602;38.096;2024-01-25T11:50:09;99051.72;;;2.96;66.90
69780;BME280;57052;55.602;38.096;2024-01-25T11:52:36;99049.06;;;2.96;67.39
69780;BME280;57052;55.602;38.096;2024-01-25T11:57:35;99045.84;;;2.94;66.82
69780;BME280;57052;55.602;38.096;2024-01-25T12:00:03;99043.16;;;2.94;66.89
69780;BME280;57052;55.602;38.096;2024-01-25T12:02:31;99053.03;;;2.93;67.00
69780;BME280;57052;55.602;38.096;2024-01-25T12:04:57;99044.47;;;2.91;67.30
69780;BME280;57052;55.602;38.096;2024-01-25T12:07:23;99003.25;;;2.66;66.66
69780;BME280;57052;55.602;38.096;2024-01-25T12:10:03;99054.88;;;2.88;66.33
69780;BME280;57052;55.602;38.096;2024-01-25T12:12:29;99043.91;;;2.89;66.69
69780;BME280;57052;55.602;38.096;2024-01-25T12:15:04;99043.34;;;2.87;66.42
69780;BME280;57052;55.602;38.096;2024-01-25T12:17:31;99050.88;;;2.90;67.31
69780;BME280;57052;55.602;38.096;2024-01-25T12:19:57;99044.19;;;2.88;66.89
69780;BME280;57052;55.602;38.096;2024-01-25T12:22:26;99051.59;;;2.86;67.08
69780;BME280;57052;55.602;38.096;2024-01-25T12:24:56;99051.13;;;2.89;66.49
69780;BME280;57052;55.602;38.096;2024-01-25T12:27:25;99057.28;;;2.89;67.02
69780;BME280;57052;55.602;38.096;2024-01-25T12:29:52;99056.47;;;2.89;66.77
69780;BME280;57052;55.602;38.096;2024-01-25T12:32:21;99054.06;;;2.87;67.54
69780;BME280;57052;55.602;38.096;2024-01-25T12:34:57;99053.16;;;2.82;66.24
69780;BME280;57052;55.602;38.096;2024-01-25T12:37:23;99044.84;;;2.78;67.13
69780;BME280;57052;55.602;38.096;2024-01-25T12:39:53;99051.06;;;2.84;67.20
69780;BME280;57052;55.602;38.096;2024-01-25T12:42:22;99053.16;;;2.82;67.22
69780;BME280;57052;55.602;38.096;2024-01-25T12:44:51;99055.84;;;2.82;67.10
69780;BME280;57052;55.602;38.096;2024-01-25T12:47:17;99051.19;;;2.72;67.28
69780;BME280;57052;55.602;38.096;2024-01-25T12:49:43;99059.25;;;2.77;66.92
69780;BME280;57052;55.602;38.096;2024-01-25T12:52:10;99066.72;;;2.75;67.03
69780;BME280;57052;55.602;38.096;2024-01-25T12:54:36;99066.13;;;2.73;67.33
69780;BME280;57052;55.602;38.096;2024-01-25T12:57:04;99058.13;;;2.73;67.71
69780;BME280;57052;55.602;38.096;2024-01-25T12:59:30;99062.69;;;2.73;67.21
69780;BME280;57052;55.602;38.096;2024-01-25T13:01:56;99045.72;;;2.62;67.43
69780;BME280;57052;55.602;38.096;2024-01-25T13:04:22;99067.22;;;2.72;67.23